Shellsville, Pennsylvania
Current Conditions -  °F | °C
As of 4:40 PM on Wednesday 26 Nov 2014 (Local Time) from KMUI Reporting Station
Light Rain Light Rain  
Wind Chill: 27°   Ceiling: Unl
Heat Index: 36°   Visibility: 10mi
Dew Point: 32°   Wind: 14mph
Humidity: 87%   Direction: 360°N
Pressure: 29.91"   Gusts: 18mph
Location:  40.3921°N, 76.6826°W
Report Text: KMUI 262140Z AUTO 36012G16KT 10SM -RA SCT021 02/00 A2991 RMK AO2 RAB2104E2120UPB2103E2104SNE2103RAB2120 $
Loading
Personal Weather Stations






























Interactive Weather Map New forecast layout! Learn more

10-Day Weather Forecast

Advertisements
Track Severe Weather on mobile